createdAt,value
2018-06-20T00:00:38.878Z,2.27
2018-06-20T00:03:07.302Z,2.85
2018-06-20T00:05:35.829Z,2.45
2018-06-20T00:08:04.196Z,2.60
2018-06-20T00:10:32.257Z,2.30
2018-06-20T00:13:00.585Z,2.75
2018-06-20T00:15:28.944Z,2.42
2018-06-20T00:17:57.261Z,6.65
2018-06-20T00:20:25.378Z,22.22
2018-06-20T00:22:54.014Z,14.75
2018-06-20T00:25:22.375Z,6.97
2018-06-20T00:27:50.727Z,4.08
2018-06-20T00:30:19.157Z,3.30
2018-06-20T00:32:47.474Z,3.92
2018-06-20T00:35:15.829Z,4.70
2018-06-20T00:37:44.208Z,5.60
2018-06-20T00:40:12.555Z,4.45
2018-06-20T00:42:40.864Z,3.20
2018-06-20T00:45:09.209Z,3.17
2018-06-20T00:47:37.669Z,2.80
2018-06-20T00:50:06.042Z,2.70
2018-06-20T00:52:34.364Z,3.50
2018-06-20T00:55:02.721Z,4.50
2018-06-20T00:57:31.062Z,5.70
2018-06-20T00:59:59.436Z,4.87
2018-06-20T01:02:27.778Z,3.90
2018-06-20T01:04:56.158Z,3.10
2018-06-20T01:07:24.478Z,3.12
2018-06-20T01:09:52.848Z,3.00
2018-06-20T01:12:21.173Z,3.08
2018-06-20T01:14:49.507Z,2.52
2018-06-20T01:17:17.858Z,2.58
2018-06-20T01:19:46.209Z,2.80
2018-06-20T01:22:14.561Z,2.72
2018-06-20T01:24:42.903Z,2.83
2018-06-20T01:27:11.239Z,2.80
2018-06-20T01:29:39.593Z,3.08
2018-06-20T01:32:07.950Z,2.60
2018-06-20T01:34:36.303Z,2.95
2018-06-20T01:37:04.679Z,3.37
2018-06-20T01:39:33.017Z,3.37
2018-06-20T01:42:01.459Z,3.15
2018-06-20T01:44:29.784Z,3.65
2018-06-20T01:46:58.146Z,3.65
2018-06-20T01:49:26.486Z,3.45
2018-06-20T01:51:54.829Z,3.22
2018-06-20T01:54:23.156Z,3.50
2018-06-20T01:56:51.514Z,3.45
2018-06-20T01:59:19.854Z,2.85
2018-06-20T02:01:48.232Z,3.20
2018-06-20T02:04:16.590Z,2.90
2018-06-20T02:06:44.948Z,3.50
2018-06-20T02:09:13.298Z,3.12
2018-06-20T02:11:41.669Z,3.62
2018-06-20T02:14:10.022Z,3.60
2018-06-20T02:16:38.401Z,4.28
2018-06-20T02:19:06.875Z,4.10
2018-06-20T02:21:35.224Z,3.98
2018-06-20T02:24:03.629Z,3.47
2018-06-20T02:26:31.994Z,3.60
2018-06-20T02:29:00.327Z,4.12
2018-06-20T02:31:28.667Z,3.42
2018-06-20T02:33:57.026Z,4.47
2018-06-20T02:36:30.648Z,3.75
2018-06-20T02:38:59.105Z,4.17
2018-06-20T02:41:27.469Z,4.78
2018-06-20T02:43:55.806Z,5.20
2018-06-20T02:46:24.163Z,4.97
2018-06-20T02:48:52.509Z,4.05
2018-06-20T02:51:20.901Z,3.73
2018-06-20T02:53:49.213Z,3.87
2018-06-20T02:56:17.566Z,3.42
2018-06-20T02:58:45.918Z,4.03
2018-06-20T03:01:14.266Z,3.52
2018-06-20T03:03:42.634Z,3.77
2018-06-20T03:06:11.078Z,4.05
2018-06-20T03:08:39.441Z,3.65
2018-06-20T03:11:07.776Z,4.10
2018-06-20T03:13:36.153Z,4.30
2018-06-20T03:16:04.572Z,3.52
2018-06-20T03:18:33.057Z,4.33
2018-06-20T03:21:01.414Z,4.40
2018-06-20T03:23:29.781Z,3.85
2018-06-20T03:25:58.154Z,4.45
2018-06-20T03:28:26.558Z,4.37
2018-06-20T03:30:54.931Z,4.10
2018-06-20T03:33:23.289Z,4.63
2018-06-20T03:35:51.629Z,4.67
2018-06-20T03:38:19.998Z,5.20
2018-06-20T03:40:48.357Z,4.00
2018-06-20T03:43:16.777Z,4.47
2018-06-20T03:45:45.135Z,4.03
2018-06-20T03:48:13.490Z,3.77
2018-06-20T03:50:41.842Z,4.20
2018-06-20T03:53:10.195Z,4.85
2018-06-20T03:55:38.551Z,5.30
2018-06-20T03:58:06.922Z,4.37
2018-06-20T04:00:35.261Z,3.92
2018-06-20T04:03:03.682Z,4.20
2018-06-20T04:05:32.012Z,4.50
2018-06-20T04:08:00.402Z,4.40
2018-06-20T04:10:28.758Z,4.47
2018-06-20T04:12:57.110Z,4.42
2018-06-20T04:15:25.431Z,4.00
2018-06-20T04:17:53.773Z,4.22
2018-06-20T04:20:22.111Z,4.90
2018-06-20T04:22:50.466Z,4.25
2018-06-20T04:25:18.810Z,4.60
2018-06-20T04:27:47.149Z,4.70
2018-06-20T04:30:15.490Z,4.42
2018-06-20T04:32:43.860Z,4.58
2018-06-20T04:35:12.210Z,4.20
2018-06-20T04:37:40.565Z,4.10
2018-06-20T04:40:08.899Z,3.67
2018-06-20T04:42:37.241Z,4.42
2018-06-20T04:45:05.583Z,3.67
2018-06-20T04:47:33.989Z,4.08
2018-06-20T04:50:02.360Z,4.12
2018-06-20T04:52:30.708Z,4.78
2018-06-20T04:54:59.183Z,4.53
2018-06-20T04:57:27.522Z,4.97
2018-06-20T04:59:55.881Z,5.17
2018-06-20T05:02:24.289Z,4.60
2018-06-20T05:04:52.751Z,4.37
2018-06-20T05:07:21.097Z,4.92
2018-06-20T05:09:49.683Z,4.50
2018-06-20T05:12:18.042Z,5.80
2018-06-20T05:14:46.518Z,4.92
2018-06-20T05:17:14.909Z,4.72
2018-06-20T05:19:43.330Z,5.58
2018-06-20T05:22:11.660Z,4.60
2018-06-20T05:24:40.027Z,5.58
2018-06-20T05:27:08.382Z,4.67
2018-06-20T05:29:36.801Z,5.65
2018-06-20T05:32:05.178Z,4.80
2018-06-20T05:34:33.565Z,5.17
2018-06-20T05:37:01.939Z,4.45
2018-06-20T05:39:30.318Z,4.58
2018-06-20T05:41:58.414Z,4.92
2018-06-20T05:44:26.820Z,5.78
2018-06-20T05:46:54.892Z,5.08
2018-06-20T05:49:23.264Z,4.67
2018-06-20T05:51:51.723Z,4.80
2018-06-20T05:54:20.190Z,4.62
2018-06-20T05:56:48.587Z,5.10
2018-06-20T05:59:16.977Z,4.42
2018-06-20T06:01:45.353Z,3.83
2018-06-20T06:04:13.494Z,4.45
2018-06-20T06:06:41.906Z,4.35
2018-06-20T06:09:10.323Z,4.00
2018-06-20T06:11:38.775Z,3.67
2018-06-20T06:14:07.154Z,4.20
2018-06-20T06:16:35.566Z,3.87
2018-06-20T06:19:03.955Z,3.30
2018-06-20T06:21:32.441Z,3.00
2018-06-20T06:24:00.882Z,3.25
2018-06-20T06:26:29.214Z,3.98
2018-06-20T06:28:57.585Z,3.05
2018-06-20T06:31:25.975Z,3.10
2018-06-20T06:33:54.356Z,3.05
2018-06-20T06:36:22.757Z,2.90
2018-06-20T06:38:51.191Z,2.80
2018-06-20T06:41:19.712Z,2.60
2018-06-20T06:43:48.134Z,2.50
2018-06-20T06:46:16.507Z,2.75
2018-06-20T06:48:44.887Z,2.70
2018-06-20T06:51:13.264Z,3.15
2018-06-20T06:53:41.698Z,3.00
2018-06-20T06:56:10.168Z,3.00
2018-06-20T06:58:38.505Z,2.40
2018-06-20T07:01:06.878Z,2.90
2018-06-20T07:03:35.301Z,2.45
2018-06-20T07:06:03.792Z,2.72
2018-06-20T07:08:32.346Z,2.77
2018-06-20T07:11:00.735Z,2.70
2018-06-20T07:13:29.141Z,2.35
2018-06-20T07:15:57.560Z,2.40
2018-06-20T07:18:25.971Z,2.67
2018-06-20T07:20:54.524Z,2.27
2018-06-20T07:23:22.886Z,2.55
2018-06-20T07:25:51.362Z,2.50
2018-06-20T07:28:19.733Z,2.08
2018-06-20T07:30:48.192Z,2.77
2018-06-20T07:33:16.871Z,2.60
2018-06-20T07:35:45.253Z,2.65
2018-06-20T07:38:13.608Z,2.40
2018-06-20T07:40:42.041Z,2.25
2018-06-20T07:43:10.463Z,2.15
2018-06-20T07:45:38.853Z,2.02
2018-06-20T07:48:07.343Z,2.10
2018-06-20T07:50:35.742Z,2.47
2018-06-20T07:53:04.118Z,2.20
2018-06-20T07:55:32.953Z,2.87
2018-06-20T07:58:01.645Z,2.10
2018-06-20T08:00:35.782Z,2.10
2018-06-20T08:03:18.011Z,2.80
2018-06-20T08:05:52.136Z,2.60
2018-06-20T08:08:25.922Z,2.40
2018-06-20T08:10:59.636Z,2.10
2018-06-20T08:13:33.559Z,2.60
2018-06-20T08:16:07.350Z,2.00
2018-06-20T08:18:41.146Z,2.22
2018-06-20T08:21:09.589Z,2.30
2018-06-20T08:23:38.337Z,1.90
2018-06-20T08:26:06.714Z,1.47
2018-06-20T08:28:35.091Z,1.70
2018-06-20T08:31:03.937Z,2.12
2018-06-20T08:33:32.305Z,1.80
2018-06-20T08:36:00.788Z,2.20
2018-06-20T08:38:29.210Z,1.75
2018-06-20T08:40:57.574Z,2.00
2018-06-20T08:43:25.961Z,2.10
2018-06-20T08:45:54.337Z,1.90
2018-06-20T08:48:22.774Z,1.95
2018-06-20T08:50:51.222Z,1.90
2018-06-20T08:53:19.644Z,2.40
2018-06-20T08:55:48.056Z,2.50
2018-06-20T08:58:16.425Z,2.58
2018-06-20T09:00:50.215Z,2.60
2018-06-20T09:03:18.621Z,2.50
2018-06-20T09:05:52.358Z,2.45
2018-06-20T09:08:26.108Z,2.58
2018-06-20T09:10:59.902Z,2.50
2018-06-20T09:13:33.942Z,2.50
2018-06-20T09:16:07.798Z,2.42
2018-06-20T09:18:41.690Z,2.62
2018-06-20T09:21:10.058Z,3.00
2018-06-20T09:23:38.448Z,3.72
2018-06-20T09:26:06.846Z,3.10
2018-06-20T09:28:35.261Z,2.92
2018-06-20T09:31:03.678Z,3.22
2018-06-20T09:33:32.146Z,3.37
2018-06-20T09:36:00.515Z,3.00
2018-06-20T09:38:28.953Z,3.35
2018-06-20T09:40:57.310Z,3.77
2018-06-20T09:43:25.742Z,3.50
2018-06-20T09:45:54.110Z,4.12
2018-06-20T09:48:22.538Z,4.17
2018-06-20T09:50:57.213Z,4.20
2018-06-20T09:53:25.815Z,3.30
2018-06-20T09:55:54.373Z,3.90
2018-06-20T09:58:22.826Z,3.83
2018-06-20T10:00:56.718Z,3.70
2018-06-20T10:03:30.449Z,3.42
2018-06-20T10:06:04.341Z,2.90
2018-06-20T10:08:38.192Z,2.87
2018-06-20T10:11:12.231Z,2.40
2018-06-20T10:13:45.147Z,2.98
2018-06-20T10:16:13.574Z,2.80
2018-06-20T10:18:42.047Z,2.55
2018-06-20T10:21:10.629Z,2.10
2018-06-20T10:23:39.185Z,2.35
2018-06-20T10:26:07.519Z,1.75
2018-06-20T10:28:35.971Z,2.20
2018-06-20T10:31:04.239Z,1.95
2018-06-20T10:33:32.661Z,1.90
2018-06-20T10:36:01.041Z,2.00
2018-06-20T10:38:29.439Z,1.90
2018-06-20T10:40:57.830Z,1.95
2018-06-20T10:43:26.206Z,2.30
2018-06-20T10:45:59.934Z,2.17
2018-06-20T10:48:28.410Z,1.82
2018-06-20T10:50:56.774Z,1.50
2018-06-20T10:53:25.128Z,1.70
2018-06-20T10:55:53.509Z,1.62
2018-06-20T10:58:27.194Z,1.80
2018-06-20T11:01:00.784Z,1.60
2018-06-20T11:03:34.531Z,2.20
2018-06-20T11:06:08.370Z,1.60
2018-06-20T11:08:42.175Z,1.60
2018-06-20T11:11:16.062Z,1.45
2018-06-20T11:13:44.594Z,1.60
2018-06-20T11:16:12.945Z,1.50
2018-06-20T11:18:44.518Z,1.42
2018-06-20T11:21:12.906Z,1.20
2018-06-20T11:23:41.312Z,1.30
2018-06-20T11:26:09.700Z,1.50
2018-06-20T11:28:38.176Z,1.30
2018-06-20T11:31:06.745Z,1.20
2018-06-20T11:33:35.059Z,1.30
2018-06-20T11:36:03.462Z,1.00
2018-06-20T11:38:31.929Z,1.10
2018-06-20T11:41:00.308Z,1.02
2018-06-20T11:43:28.739Z,1.07
2018-06-20T11:46:02.749Z,1.05
2018-06-20T11:48:31.124Z,1.02
2018-06-20T11:50:59.568Z,0.95
2018-06-20T11:53:27.969Z,1.62
2018-06-20T11:55:56.386Z,1.22
2018-06-20T11:59:31.651Z,1.55
2018-06-20T12:02:05.506Z,1.30
2018-06-20T12:04:39.449Z,1.32
2018-06-20T12:07:13.312Z,1.20
2018-06-20T12:09:47.234Z,1.32
2018-06-20T12:12:20.959Z,1.17
2018-06-20T12:14:54.557Z,1.00
2018-06-20T12:17:28.368Z,0.90
2018-06-20T12:20:02.142Z,1.00
2018-06-20T12:22:36.010Z,1.00
2018-06-20T12:25:09.739Z,0.98
2018-06-20T12:27:43.593Z,0.90
2018-06-20T12:30:17.194Z,1.17
2018-06-20T12:32:51.089Z,1.15
2018-06-20T12:35:24.952Z,1.00
2018-06-20T12:37:58.677Z,0.85
2018-06-20T12:40:32.506Z,0.88
2018-06-20T12:43:06.249Z,1.10
2018-06-20T12:45:34.795Z,0.75
2018-06-20T12:48:03.197Z,0.80
2018-06-20T12:50:31.561Z,1.00
2018-06-20T12:53:00.056Z,1.05
2018-06-20T12:55:28.418Z,1.05
2018-06-20T12:57:57.335Z,1.05
2018-06-20T13:00:25.770Z,1.37
2018-06-20T13:02:54.203Z,0.80
2018-06-20T13:05:22.542Z,0.88
2018-06-20T13:07:50.917Z,1.00
2018-06-20T13:10:19.277Z,1.37
2018-06-20T13:12:47.806Z,1.00
2018-06-20T13:15:16.228Z,1.00
2018-06-20T13:17:44.573Z,1.10
2018-06-20T13:20:12.988Z,0.90
2018-06-20T13:22:41.482Z,1.12
2018-06-20T13:25:09.867Z,3.20
2018-06-20T13:27:43.483Z,3.67
2018-06-20T13:30:12.887Z,3.50
2018-06-20T13:32:46.726Z,2.70
2018-06-20T13:35:20.275Z,1.70
2018-06-20T13:37:53.949Z,2.20
2018-06-20T13:40:27.717Z,2.00
2018-06-20T13:43:01.410Z,3.65
2018-06-20T13:45:35.394Z,2.40
2018-06-20T13:48:09.236Z,1.30
2018-06-20T13:50:37.587Z,1.25
2018-06-20T13:53:06.045Z,1.30
2018-06-20T13:55:34.355Z,1.30
2018-06-20T13:58:02.781Z,1.10
2018-06-20T14:00:30.870Z,1.40
2018-06-20T14:02:59.258Z,1.30
2018-06-20T14:05:27.934Z,1.10
2018-06-20T14:07:56.378Z,1.20
2018-06-20T14:10:24.718Z,1.10
2018-06-20T14:12:53.160Z,1.20
2018-06-20T14:15:21.565Z,2.00
2018-06-20T14:17:49.984Z,2.08
2018-06-20T14:20:23.741Z,1.00
2018-06-20T14:22:51.913Z,1.00
2018-06-20T14:25:20.313Z,1.02
2018-06-20T14:27:48.666Z,0.80
2018-06-20T14:30:22.346Z,1.02
2018-06-20T14:32:56.003Z,1.05
2018-06-20T14:35:29.842Z,1.70
2018-06-20T14:38:03.595Z,1.10
2018-06-20T14:40:37.505Z,0.82
2018-06-20T14:44:08.915Z,1.07
2018-06-20T14:46:37.426Z,2.00
2018-06-20T14:49:05.823Z,2.20
2018-06-20T14:51:34.226Z,1.40
2018-06-20T14:54:02.610Z,1.30
2018-06-20T14:56:31.022Z,1.60
2018-06-20T14:58:59.446Z,1.22
2018-06-20T15:01:27.837Z,2.50
2018-06-20T15:03:56.361Z,1.80
2018-06-20T15:06:24.879Z,1.22
2018-06-20T15:08:53.305Z,1.15
2018-06-20T15:11:21.708Z,3.02
2018-06-20T15:13:50.170Z,1.47
2018-06-20T15:16:23.927Z,1.22
2018-06-20T15:18:52.303Z,1.40
2018-06-20T15:21:20.687Z,1.15
2018-06-20T15:23:49.266Z,1.15
2018-06-20T15:26:23.037Z,1.20
2018-06-20T15:28:56.805Z,8.83
2018-06-20T15:31:30.665Z,7.75
2018-06-20T15:34:04.405Z,4.92
2018-06-20T15:36:38.364Z,2.50
2018-06-20T15:39:07.884Z,8.08
2018-06-20T15:41:36.284Z,2.40
2018-06-20T15:44:05.471Z,4.20
2018-06-20T15:46:33.930Z,1.50
2018-06-20T15:49:02.326Z,2.05
2018-06-20T15:51:30.807Z,1.60
2018-06-20T15:53:59.213Z,12.07
2018-06-20T15:56:27.715Z,3.58
2018-06-20T15:58:56.097Z,3.83
2018-06-20T16:01:24.520Z,2.60
2018-06-20T16:03:53.163Z,3.87
2018-06-20T16:06:21.646Z,6.62
2018-06-20T16:08:55.458Z,4.97
2018-06-20T16:11:23.843Z,3.40
2018-06-20T16:13:52.372Z,2.10
2018-06-20T16:16:20.753Z,4.37
2018-06-20T16:18:54.323Z,4.75
2018-06-20T16:21:28.190Z,6.50
2018-06-20T16:24:01.989Z,5.05
2018-06-20T16:26:35.890Z,4.22
2018-06-20T16:29:09.958Z,2.10
2018-06-20T16:31:38.388Z,2.85
2018-06-20T16:34:06.841Z,1.90
2018-06-20T16:36:35.334Z,1.50
2018-06-20T16:39:03.798Z,1.87
2018-06-20T16:41:32.186Z,1.80
2018-06-20T16:44:00.605Z,1.67
2018-06-20T16:46:29.007Z,2.20
2018-06-20T16:48:57.417Z,4.33
2018-06-20T16:51:25.820Z,3.65
2018-06-20T16:53:54.193Z,4.12
2018-06-20T16:56:22.593Z,3.40
2018-06-20T16:58:50.962Z,5.65
2018-06-20T17:01:24.682Z,10.45
2018-06-20T17:03:53.198Z,9.60
2018-06-20T17:06:21.626Z,4.22
2018-06-20T17:08:50.003Z,5.50
2018-06-20T17:11:18.359Z,9.30
2018-06-20T17:13:52.085Z,6.00
2018-06-20T17:16:25.976Z,4.85
2018-06-20T17:19:00.700Z,11.50
2018-06-20T17:21:34.365Z,7.22
2018-06-20T17:24:08.078Z,4.03
2018-06-20T17:26:36.479Z,7.33
2018-06-20T17:29:11.283Z,11.95
2018-06-20T17:31:39.698Z,3.67
2018-06-20T17:34:08.070Z,4.00
2018-06-20T17:36:36.463Z,8.73
2018-06-20T17:39:07.429Z,5.47
2018-06-20T17:41:35.830Z,3.25
2018-06-20T17:44:04.970Z,2.62
2018-06-20T17:46:33.458Z,5.50
2018-06-20T17:49:02.346Z,4.22
2018-06-20T17:51:31.003Z,2.30
2018-06-20T17:53:59.585Z,2.90
2018-06-20T17:56:27.954Z,2.60
2018-06-20T17:58:56.383Z,3.10
2018-06-20T18:01:24.727Z,8.23
2018-06-20T18:03:53.126Z,10.55
2018-06-20T18:06:26.807Z,9.83
2018-06-20T18:09:00.658Z,6.47
2018-06-20T18:11:34.428Z,2.75
2018-06-20T18:14:08.350Z,2.08
2018-06-20T18:16:42.328Z,8.08
2018-06-20T18:19:10.641Z,16.55
2018-06-20T18:21:38.729Z,9.83
2018-06-20T18:24:07.136Z,6.80
2018-06-20T18:26:35.511Z,5.83
2018-06-20T18:29:03.923Z,8.75
2018-06-20T18:31:32.256Z,8.18
2018-06-20T18:34:00.839Z,6.87
2018-06-20T18:36:29.166Z,6.70
2018-06-20T18:38:57.807Z,6.20
2018-06-20T18:41:26.184Z,4.62
2018-06-20T18:43:54.578Z,3.10
2018-06-20T18:46:22.974Z,3.58
2018-06-20T18:48:51.547Z,4.05
2018-06-20T18:51:19.735Z,3.17
2018-06-20T18:53:48.119Z,8.73
2018-06-20T18:56:16.530Z,18.48
2018-06-20T18:58:50.370Z,10.55
2018-06-20T19:01:24.186Z,9.48
2018-06-20T19:03:58.099Z,17.32
2018-06-20T19:06:31.730Z,17.70
2018-06-20T19:09:04.474Z,11.63
2018-06-20T19:11:32.806Z,9.98
2018-06-20T19:14:01.226Z,7.83
2018-06-20T19:16:29.568Z,18.37
2018-06-20T19:18:57.899Z,7.78
2018-06-20T19:21:26.266Z,6.85
2018-06-20T19:23:54.598Z,6.90
2018-06-20T19:26:22.980Z,10.08
2018-06-20T19:28:51.393Z,11.33
2018-06-20T19:31:19.785Z,15.35
2018-06-20T19:33:48.126Z,16.05
2018-06-20T19:36:16.491Z,18.52
2018-06-20T19:38:44.850Z,10.70
2018-06-20T19:41:13.645Z,8.15
2018-06-20T19:43:47.457Z,4.30
2018-06-20T19:46:16.074Z,3.77
2018-06-20T19:48:44.758Z,5.25
2018-06-20T19:51:13.262Z,4.70
2018-06-20T19:53:41.673Z,3.83
2018-06-20T19:56:10.063Z,3.45
2018-06-20T19:58:38.345Z,2.67
2018-06-20T20:01:06.714Z,2.92
2018-06-20T20:03:35.179Z,3.60
2018-06-20T20:06:03.538Z,3.77
2018-06-20T20:08:32.004Z,4.10
2018-06-20T20:11:00.379Z,3.20
2018-06-20T20:13:28.841Z,3.35
2018-06-20T20:15:57.321Z,3.33
2018-06-20T20:18:25.665Z,3.15
2018-06-20T20:20:54.105Z,3.62
2018-06-20T20:23:22.447Z,4.00
2018-06-20T20:25:50.889Z,3.70
2018-06-20T20:28:19.229Z,3.30
2018-06-20T20:30:47.579Z,3.30
2018-06-20T20:33:15.989Z,3.05
2018-06-20T20:35:44.318Z,3.60
2018-06-20T20:38:12.719Z,3.30
2018-06-20T20:40:41.047Z,3.00
2018-06-20T20:43:09.423Z,3.08
2018-06-20T20:45:37.754Z,3.30
2018-06-20T20:48:06.131Z,2.90
2018-06-20T20:50:34.487Z,2.72
2018-06-20T20:53:02.887Z,2.60
2018-06-20T20:55:31.970Z,2.58
2018-06-20T20:58:00.538Z,3.80
2018-06-20T21:00:28.865Z,4.00
2018-06-20T21:02:57.327Z,3.45
2018-06-20T21:05:25.766Z,3.33
2018-06-20T21:07:54.334Z,2.58
2018-06-20T21:10:22.754Z,2.12
2018-06-20T21:12:51.220Z,2.30
2018-06-20T21:15:19.572Z,2.77
2018-06-20T21:17:48.950Z,2.67
2018-06-20T21:20:17.670Z,2.40
2018-06-20T21:22:46.193Z,2.40
2018-06-20T21:25:14.589Z,2.83
2018-06-20T21:27:43.010Z,2.80
2018-06-20T21:30:11.460Z,2.20
2018-06-20T21:32:39.868Z,2.80
2018-06-20T21:35:08.600Z,2.62
2018-06-20T21:37:36.956Z,2.50
2018-06-20T21:40:09.234Z,2.60
2018-06-20T21:42:37.774Z,2.65
2018-06-20T21:45:06.219Z,2.17
2018-06-20T21:47:35.134Z,2.40
2018-06-20T21:50:03.595Z,2.30
2018-06-20T21:52:32.218Z,2.30
2018-06-20T21:55:00.717Z,2.33
2018-06-20T21:57:29.407Z,3.10
2018-06-20T21:59:57.763Z,2.55
2018-06-20T22:02:26.246Z,2.72
2018-06-20T22:04:54.642Z,2.58
2018-06-20T22:07:23.004Z,2.40
2018-06-20T22:09:51.458Z,2.77
2018-06-20T22:12:19.845Z,2.80
2018-06-20T22:14:48.311Z,2.50
2018-06-20T22:17:16.826Z,2.50
2018-06-20T22:19:45.191Z,2.42
2018-06-20T22:22:13.546Z,2.25
2018-06-20T22:24:41.981Z,2.70
2018-06-20T22:27:10.379Z,2.60
2018-06-20T22:29:38.746Z,2.60
2018-06-20T22:32:07.116Z,2.77
2018-06-20T22:34:35.639Z,3.10
2018-06-20T22:37:04.011Z,3.40
2018-06-20T22:39:32.392Z,4.05
2018-06-20T22:42:00.813Z,3.40
2018-06-20T22:44:29.243Z,4.22
2018-06-20T22:46:57.675Z,4.28
2018-06-20T22:49:26.027Z,4.45
2018-06-20T22:51:55.403Z,4.83
2018-06-20T22:54:23.799Z,4.65
2018-06-20T22:56:52.163Z,4.30
2018-06-20T22:59:20.561Z,4.70
2018-06-20T23:01:48.640Z,4.62
2018-06-20T23:04:16.718Z,4.05
2018-06-20T23:06:45.073Z,4.75
2018-06-20T23:09:13.423Z,4.58
2018-06-20T23:11:49.041Z,4.25
2018-06-20T23:14:17.412Z,4.53
2018-06-20T23:16:45.820Z,4.08
2018-06-20T23:19:14.282Z,4.12
2018-06-20T23:21:43.013Z,3.55
2018-06-20T23:24:11.382Z,3.52
2018-06-20T23:26:39.779Z,3.58
2018-06-20T23:29:08.145Z,3.37
2018-06-20T23:31:36.523Z,3.83
2018-06-20T23:34:04.926Z,3.87
2018-06-20T23:36:33.418Z,4.05
2018-06-20T23:39:01.767Z,3.80
2018-06-20T23:41:30.119Z,3.62
2018-06-20T23:43:58.471Z,4.03
2018-06-20T23:46:26.862Z,3.50
2018-06-20T23:48:55.191Z,4.15
2018-06-20T23:51:23.571Z,3.30
2018-06-20T23:53:51.973Z,3.92
2018-06-20T23:56:20.377Z,4.00
2018-06-20T23:58:48.706Z,3.75
